createdAt,value
2019-02-07T00:00:21.470Z,0.80
2019-02-07T00:02:48.310Z,0.80
2019-02-07T00:05:15.151Z,0.90
2019-02-07T00:07:42.176Z,0.80
2019-02-07T00:10:09.479Z,0.80
2019-02-07T00:12:36.505Z,0.80
2019-02-07T00:15:05.632Z,0.80
2019-02-07T00:17:32.907Z,0.80
2019-02-07T00:19:59.975Z,0.80
2019-02-07T00:22:26.780Z,0.80
2019-02-07T00:24:53.685Z,0.80
2019-02-07T00:27:20.407Z,0.80
2019-02-07T00:29:47.284Z,0.80
2019-02-07T00:32:14.162Z,0.80
2019-02-07T00:34:41.404Z,0.80
2019-02-07T00:37:08.112Z,0.80
2019-02-07T00:39:34.954Z,0.80
2019-02-07T00:42:02.123Z,0.80
2019-02-07T00:44:29.023Z,0.80
2019-02-07T00:46:55.833Z,0.80
2019-02-07T00:49:22.750Z,0.70
2019-02-07T00:51:49.571Z,0.70
2019-02-07T00:54:16.947Z,0.70
2019-02-07T00:56:43.954Z,0.70
2019-02-07T00:59:12.006Z,0.70
2019-02-07T01:01:38.958Z,0.70
2019-02-07T01:04:06.023Z,0.70
2019-02-07T01:06:32.955Z,0.70
2019-02-07T01:08:59.951Z,0.70
2019-02-07T01:11:27.079Z,0.80
2019-02-07T01:13:53.828Z,0.70
2019-02-07T01:16:20.811Z,0.70
2019-02-07T01:18:47.682Z,0.80
2019-02-07T01:21:14.531Z,0.80
2019-02-07T01:23:41.375Z,0.80
2019-02-07T01:26:08.192Z,0.80
2019-02-07T01:28:35.152Z,0.80
2019-02-07T01:31:02.109Z,0.90
2019-02-07T01:33:29.087Z,0.90
2019-02-07T01:35:56.039Z,0.90
2019-02-07T01:38:22.875Z,0.90
2019-02-07T01:40:49.891Z,1.00
2019-02-07T01:43:16.867Z,1.00
2019-02-07T01:45:43.674Z,1.00
2019-02-07T01:48:10.955Z,1.00
2019-02-07T01:50:37.954Z,1.00
2019-02-07T01:53:04.709Z,0.80
2019-02-07T01:55:31.526Z,1.10
2019-02-07T01:57:58.508Z,1.00
2019-02-07T02:00:25.746Z,1.10
2019-02-07T02:02:52.807Z,1.10
2019-02-07T02:05:19.775Z,1.10
2019-02-07T02:07:47.106Z,1.10
2019-02-07T02:10:21.855Z,1.10
2019-02-07T02:12:49.111Z,1.10
2019-02-07T02:15:24.498Z,1.20
2019-02-07T02:17:47.136Z,1.20
2019-02-07T02:20:15.691Z,1.20
2019-02-07T02:22:42.839Z,1.30
2019-02-07T02:25:09.956Z,1.30
2019-02-07T02:27:36.923Z,1.30
2019-02-07T02:30:06.883Z,1.30
2019-02-07T02:32:33.711Z,1.40
2019-02-07T02:35:00.713Z,1.30
2019-02-07T02:37:27.710Z,1.30
2019-02-07T02:39:54.980Z,1.30
2019-02-07T02:42:21.719Z,1.30
2019-02-07T02:44:48.460Z,1.40
2019-02-07T02:47:15.285Z,1.40
2019-02-07T02:49:42.031Z,1.40
2019-02-07T02:52:08.916Z,1.40
2019-02-07T02:54:42.378Z,1.40
2019-02-07T02:57:09.681Z,1.40
2019-02-07T02:59:36.680Z,1.40
2019-02-07T03:02:38.787Z,1.40
2019-02-07T03:05:24.966Z,1.40
2019-02-07T03:08:13.913Z,1.40
2019-02-07T03:11:09.531Z,1.40
2019-02-07T03:14:02.049Z,1.40
2019-02-07T03:16:47.183Z,1.40
2019-02-07T03:19:32.481Z,1.50
2019-02-07T03:22:23.226Z,1.40
2019-02-07T03:25:12.784Z,1.50
2019-02-07T03:27:58.464Z,1.50
2019-02-07T03:30:48.490Z,1.40
2019-02-07T03:33:53.409Z,1.40
2019-02-07T03:36:39.816Z,1.40
2019-02-07T03:39:25.513Z,1.40
2019-02-07T03:42:11.115Z,1.40
2019-02-07T03:45:03.317Z,1.40
2019-02-07T03:47:49.888Z,1.40
2019-02-07T03:50:30.067Z,1.40
2019-02-07T03:53:14.862Z,1.40
2019-02-07T03:56:07.375Z,1.40
2019-02-07T03:58:52.307Z,1.40
2019-02-07T04:01:37.207Z,1.50
2019-02-07T04:04:13.648Z,1.40
2019-02-07T04:07:00.198Z,1.40
2019-02-07T04:09:47.171Z,1.40
2019-02-07T04:12:25.292Z,1.40
2019-02-07T04:15:27.092Z,1.50
2019-02-07T04:18:13.237Z,1.40
2019-02-07T04:21:08.968Z,1.40
2019-02-07T04:23:44.812Z,1.40
2019-02-07T04:26:27.439Z,1.40
2019-02-07T04:29:09.223Z,1.40
2019-02-07T04:31:52.953Z,1.40
2019-02-07T04:34:38.065Z,1.40
2019-02-07T04:37:24.569Z,1.50
2019-02-07T04:40:14.011Z,1.50
2019-02-07T04:42:51.471Z,1.50
2019-02-07T04:45:42.388Z,1.50
2019-02-07T04:48:28.937Z,1.50
2019-02-07T04:51:07.511Z,1.50
2019-02-07T04:54:06.008Z,1.50
2019-02-07T04:56:55.574Z,1.50
2019-02-07T04:59:57.272Z,1.60
2019-02-07T05:02:42.800Z,1.60
2019-02-07T05:05:20.623Z,1.60
2019-02-07T05:07:57.794Z,1.60
2019-02-07T05:10:46.080Z,1.60
2019-02-07T05:13:30.274Z,1.60
2019-02-07T05:16:09.843Z,1.60
2019-02-07T05:18:56.451Z,1.60
2019-02-07T05:21:41.879Z,1.60
2019-02-07T05:24:16.951Z,1.60
2019-02-07T05:27:15.487Z,1.60
2019-02-07T05:29:49.220Z,1.60
2019-02-07T05:32:45.366Z,1.60
2019-02-07T05:35:27.778Z,1.60
2019-02-07T05:38:23.654Z,1.60
2019-02-07T05:41:05.570Z,1.60
2019-02-07T05:43:48.179Z,1.60
2019-02-07T05:46:37.614Z,1.60
2019-02-07T05:49:24.243Z,1.60
2019-02-07T05:52:10.935Z,1.60
2019-02-07T05:54:56.251Z,1.60
2019-02-07T05:57:46.577Z,1.60
2019-02-07T06:00:31.302Z,1.60
2019-02-07T06:03:07.074Z,1.60
2019-02-07T06:05:52.136Z,1.60
2019-02-07T06:08:28.199Z,1.60
2019-02-07T06:11:16.235Z,1.60
2019-02-07T06:14:14.556Z,1.60
2019-02-07T06:17:02.660Z,1.60
2019-02-07T06:19:33.578Z,1.70
2019-02-07T06:22:35.425Z,1.70
2019-02-07T06:25:22.852Z,1.70
2019-02-07T06:28:21.586Z,1.80
2019-02-07T06:31:00.187Z,1.80
2019-02-07T06:33:57.526Z,1.80
2019-02-07T06:36:44.237Z,1.80
2019-02-07T06:39:33.519Z,1.90
2019-02-07T06:42:08.435Z,1.90
2019-02-07T06:45:02.166Z,1.90
2019-02-07T06:48:03.728Z,1.90
2019-02-07T06:50:48.558Z,1.90
2019-02-07T06:53:44.456Z,1.90
2019-02-07T06:56:22.257Z,1.70
2019-02-07T06:59:05.500Z,1.90
2019-02-07T07:01:53.409Z,1.90
2019-02-07T07:04:58.219Z,2.00
2019-02-07T07:07:48.130Z,2.00
2019-02-07T07:10:45.095Z,2.10
2019-02-07T07:13:37.487Z,2.00
2019-02-07T07:16:22.787Z,2.00
2019-02-07T07:19:21.899Z,2.10
2019-02-07T07:22:06.567Z,2.10
2019-02-07T07:24:53.776Z,2.10
2019-02-07T07:27:39.250Z,2.10
2019-02-07T07:30:23.400Z,2.00
2019-02-07T07:33:08.374Z,2.10
2019-02-07T07:35:54.883Z,2.10
2019-02-07T07:38:40.136Z,2.10
2019-02-07T07:41:25.482Z,2.10
2019-02-07T07:44:11.959Z,2.10
2019-02-07T07:46:46.979Z,2.10
2019-02-07T07:49:39.382Z,2.10
2019-02-07T07:52:25.055Z,2.10
2019-02-07T07:55:05.633Z,2.20
2019-02-07T07:57:51.159Z,2.20
2019-02-07T08:00:36.103Z,2.20
2019-02-07T08:03:26.823Z,2.30
2019-02-07T08:06:20.008Z,2.20
2019-02-07T08:09:12.683Z,2.30
2019-02-07T08:12:05.952Z,2.30
2019-02-07T08:15:01.491Z,2.20
2019-02-07T08:17:47.668Z,2.30
2019-02-07T08:20:40.686Z,2.30
2019-02-07T08:23:13.079Z,2.30
2019-02-07T08:26:05.530Z,2.30
2019-02-07T08:28:50.388Z,2.30
2019-02-07T08:31:51.971Z,2.30
2019-02-07T08:34:35.173Z,2.30
2019-02-07T08:37:20.583Z,2.30
2019-02-07T08:40:05.933Z,2.40
2019-02-07T08:42:52.923Z,2.40
2019-02-07T08:45:38.292Z,2.40
2019-02-07T08:48:14.702Z,2.40
2019-02-07T08:51:00.155Z,2.50
2019-02-07T08:53:50.458Z,2.50
2019-02-07T08:56:26.016Z,2.50
2019-02-07T08:59:16.403Z,2.60
2019-02-07T09:02:01.882Z,2.50
2019-02-07T09:04:47.035Z,2.50
2019-02-07T09:07:32.299Z,2.50
2019-02-07T09:10:28.782Z,2.60
2019-02-07T09:13:12.619Z,2.70
2019-02-07T09:15:51.847Z,2.80
2019-02-07T09:18:37.002Z,2.80
2019-02-07T09:21:22.662Z,2.80
2019-02-07T09:24:18.663Z,2.70
2019-02-07T09:27:17.525Z,2.80
2019-02-07T09:30:03.065Z,2.70
2019-02-07T09:32:48.471Z,2.60
2019-02-07T09:35:34.990Z,2.50
2019-02-07T09:38:20.332Z,2.50
2019-02-07T09:41:09.110Z,2.60
2019-02-07T09:44:13.686Z,2.50
2019-02-07T09:47:09.156Z,2.70
2019-02-07T09:49:55.760Z,2.70
2019-02-07T09:52:48.231Z,2.70
2019-02-07T09:55:33.667Z,2.70
2019-02-07T09:58:26.203Z,2.70
2019-02-07T10:01:11.279Z,2.60
2019-02-07T10:03:58.054Z,2.60
2019-02-07T10:06:53.659Z,2.50
2019-02-07T10:09:55.503Z,2.50
2019-02-07T10:12:40.821Z,2.60
2019-02-07T10:15:32.955Z,2.60
2019-02-07T10:18:37.818Z,1.40
2019-02-07T10:21:23.407Z,2.60
2019-02-07T10:24:09.836Z,2.60
2019-02-07T10:26:58.758Z,2.50
2019-02-07T10:29:48.291Z,2.60
2019-02-07T10:32:46.872Z,2.60
2019-02-07T10:35:39.390Z,2.60
2019-02-07T10:38:24.758Z,2.60
2019-02-07T10:41:17.362Z,2.60
2019-02-07T10:44:09.766Z,2.70
2019-02-07T10:46:55.139Z,2.70
2019-02-07T10:49:59.296Z,2.60
2019-02-07T10:52:40.503Z,2.60
2019-02-07T10:55:20.856Z,2.70
2019-02-07T10:58:05.005Z,2.70
2019-02-07T11:00:50.041Z,2.70
2019-02-07T11:03:35.110Z,2.70
2019-02-07T11:06:34.630Z,2.60
2019-02-07T11:09:36.221Z,2.60
2019-02-07T11:12:17.399Z,2.60
2019-02-07T11:15:00.927Z,2.70
2019-02-07T11:17:57.303Z,2.70
2019-02-07T11:20:33.131Z,2.80
2019-02-07T11:23:20.459Z,2.80
2019-02-07T11:26:19.222Z,2.80
2019-02-07T11:29:04.667Z,2.80
2019-02-07T11:31:41.244Z,2.80
2019-02-07T11:34:22.632Z,2.80
2019-02-07T11:37:13.171Z,2.80
2019-02-07T11:40:01.266Z,2.90
2019-02-07T11:42:47.807Z,2.90
2019-02-07T11:45:22.924Z,3.00
2019-02-07T11:48:07.927Z,3.00
2019-02-07T11:50:53.007Z,3.00
2019-02-07T11:53:35.302Z,3.00
2019-02-07T11:56:21.990Z,3.10
2019-02-07T11:59:07.171Z,3.10
2019-02-07T12:01:52.550Z,3.10
2019-02-07T12:04:41.831Z,3.10
2019-02-07T12:07:19.587Z,3.10
2019-02-07T12:10:06.207Z,3.20
2019-02-07T12:13:08.259Z,3.20
2019-02-07T12:15:57.505Z,3.20
2019-02-07T12:18:39.499Z,3.20
2019-02-07T12:21:21.015Z,3.20
2019-02-07T12:24:06.179Z,3.30
2019-02-07T12:26:55.582Z,3.30
2019-02-07T12:29:40.956Z,3.30
2019-02-07T12:32:16.371Z,3.30
2019-02-07T12:35:03.281Z,3.30
2019-02-07T12:37:49.784Z,3.50
2019-02-07T12:40:45.500Z,3.40
2019-02-07T12:43:37.891Z,3.40
2019-02-07T12:46:23.362Z,3.40
2019-02-07T12:49:13.137Z,3.50
2019-02-07T12:51:55.959Z,3.40
2019-02-07T12:54:45.804Z,3.50
2019-02-07T12:57:38.663Z,3.50
2019-02-07T13:00:18.995Z,3.50
2019-02-07T13:03:17.635Z,3.50
2019-02-07T13:06:09.852Z,3.60
2019-02-07T13:09:02.342Z,3.70
2019-02-07T13:12:04.203Z,3.70
2019-02-07T13:14:49.715Z,3.70
2019-02-07T13:17:36.347Z,3.80
2019-02-07T13:20:25.715Z,3.80
2019-02-07T13:23:18.322Z,3.80
2019-02-07T13:25:57.366Z,3.80
2019-02-07T13:28:44.170Z,4.00
2019-02-07T13:31:26.175Z,3.90
2019-02-07T13:34:15.976Z,4.00
2019-02-07T13:37:06.947Z,4.00
2019-02-07T13:39:55.236Z,4.00
2019-02-07T13:42:40.814Z,4.00
2019-02-07T13:45:26.370Z,4.10
2019-02-07T13:48:12.647Z,4.20
2019-02-07T13:50:54.875Z,4.30
2019-02-07T13:53:44.506Z,4.40
2019-02-07T13:56:29.999Z,4.50
2019-02-07T13:59:28.568Z,4.50
2019-02-07T14:02:26.979Z,4.50
2019-02-07T14:05:05.479Z,4.50
2019-02-07T14:07:48.120Z,4.40
2019-02-07T14:10:44.561Z,4.50
2019-02-07T14:13:41.230Z,4.40
2019-02-07T14:16:33.411Z,4.40
2019-02-07T14:19:24.852Z,4.40
2019-02-07T14:22:08.603Z,4.40
2019-02-07T14:24:55.017Z,4.50
2019-02-07T14:27:40.955Z,4.50
2019-02-07T14:30:28.949Z,4.50
2019-02-07T14:33:04.173Z,4.50
2019-02-07T14:35:50.796Z,4.70
2019-02-07T14:38:37.431Z,4.80
2019-02-07T14:41:12.590Z,4.70
2019-02-07T14:43:52.505Z,4.70
2019-02-07T14:46:39.115Z,4.70
2019-02-07T14:49:05.869Z,4.70
2019-02-07T14:51:34.540Z,4.70
2019-02-07T14:54:01.535Z,4.70
2019-02-07T14:56:28.856Z,4.70
2019-02-07T14:58:55.903Z,4.70
2019-02-07T15:01:22.859Z,4.70
2019-02-07T15:03:49.725Z,4.80
2019-02-07T15:06:16.559Z,4.70
2019-02-07T15:08:43.395Z,4.80
2019-02-07T15:11:10.692Z,4.70
2019-02-07T15:13:37.566Z,4.70
2019-02-07T15:16:05.137Z,4.80
2019-02-07T15:18:31.879Z,4.70
2019-02-07T15:20:58.779Z,4.70
2019-02-07T15:23:25.632Z,4.70
2019-02-07T15:25:52.569Z,4.70
2019-02-07T15:28:19.315Z,4.70
2019-02-07T15:30:46.171Z,4.70
2019-02-07T15:33:13.055Z,4.80
2019-02-07T15:35:43.139Z,4.70
2019-02-07T15:38:10.007Z,4.80
2019-02-07T15:40:37.311Z,4.80
2019-02-07T15:43:04.242Z,4.80
2019-02-07T15:45:44.088Z,4.80
2019-02-07T15:48:11.044Z,4.80
2019-02-07T15:50:38.515Z,4.90
2019-02-07T15:53:06.152Z,4.90
2019-02-07T15:55:35.654Z,5.00
2019-02-07T15:58:03.200Z,4.90
2019-02-07T16:00:45.114Z,5.00
2019-02-07T16:03:17.454Z,5.00
2019-02-07T16:05:44.431Z,5.00
2019-02-07T16:08:11.348Z,5.00
2019-02-07T16:10:38.169Z,5.10
2019-02-07T16:13:05.123Z,5.10
2019-02-07T16:15:31.839Z,5.10
2019-02-07T16:17:58.795Z,5.10
2019-02-07T16:20:29.370Z,5.00
2019-02-07T16:22:58.907Z,5.00
2019-02-07T16:25:25.187Z,5.00
2019-02-07T16:27:52.250Z,5.00
2019-02-07T16:30:19.425Z,5.00
2019-02-07T16:32:46.311Z,4.90
2019-02-07T16:35:15.519Z,4.90
2019-02-07T16:37:42.893Z,4.90
2019-02-07T16:40:10.218Z,4.80
2019-02-07T16:42:37.215Z,5.20
2019-02-07T16:45:05.900Z,4.80
2019-02-07T16:47:32.680Z,4.80
2019-02-07T16:49:59.644Z,4.70
2019-02-07T16:52:26.505Z,4.60
2019-02-07T16:54:53.593Z,4.60
2019-02-07T16:57:20.862Z,4.50
2019-02-07T16:59:47.840Z,4.40
2019-02-07T17:02:14.712Z,4.30
2019-02-07T17:04:41.680Z,4.20
2019-02-07T17:07:08.891Z,4.10
2019-02-07T17:09:39.972Z,4.00
2019-02-07T17:12:07.476Z,3.90
2019-02-07T17:14:34.465Z,3.90
2019-02-07T17:17:01.583Z,3.80
2019-02-07T17:19:28.548Z,3.80
2019-02-07T17:21:55.283Z,3.70
2019-02-07T17:24:22.261Z,3.70
2019-02-07T17:26:49.259Z,3.60
2019-02-07T17:29:16.340Z,3.60
2019-02-07T17:31:43.183Z,3.50
2019-02-07T17:34:10.271Z,3.50
2019-02-07T17:36:37.281Z,3.40
2019-02-07T17:39:05.965Z,3.40
2019-02-07T17:41:32.828Z,3.40
2019-02-07T17:43:59.791Z,3.30
2019-02-07T17:46:27.447Z,3.30
2019-02-07T17:48:54.515Z,3.20
2019-02-07T17:51:23.222Z,3.20
2019-02-07T17:53:50.028Z,3.20
2019-02-07T17:56:17.114Z,3.20
2019-02-07T17:58:44.141Z,3.20
2019-02-07T18:01:11.366Z,3.20
2019-02-07T18:03:38.311Z,3.20
2019-02-07T18:06:06.967Z,2.80
2019-02-07T18:08:34.078Z,3.10
2019-02-07T18:11:01.026Z,3.00
2019-02-07T18:13:28.076Z,3.00
2019-02-07T18:15:57.377Z,3.00
2019-02-07T18:18:23.787Z,3.00
2019-02-07T18:20:50.795Z,3.10
2019-02-07T18:23:17.783Z,3.10
2019-02-07T18:25:46.843Z,3.00
2019-02-07T18:28:14.475Z,3.10
2019-02-07T18:30:41.526Z,3.10
2019-02-07T18:33:08.359Z,3.10
2019-02-07T18:35:35.703Z,3.10
2019-02-07T18:38:02.888Z,3.00
2019-02-07T18:40:29.960Z,3.00
2019-02-07T18:42:56.802Z,3.10
2019-02-07T18:45:23.986Z,3.10
2019-02-07T18:47:51.132Z,3.20
2019-02-07T18:50:24.093Z,3.30
2019-02-07T18:52:51.098Z,3.40
2019-02-07T18:55:18.123Z,3.50
2019-02-07T18:57:45.100Z,3.60
2019-02-07T19:00:15.188Z,3.60
2019-02-07T19:02:43.912Z,3.70
2019-02-07T19:05:13.272Z,3.70
2019-02-07T19:07:42.906Z,3.70
2019-02-07T19:10:13.100Z,3.70
2019-02-07T19:12:43.667Z,3.70
2019-02-07T19:15:13.772Z,3.80
2019-02-07T19:17:40.783Z,3.80
2019-02-07T19:20:12.636Z,3.90
2019-02-07T19:22:39.719Z,3.90
2019-02-07T19:25:07.756Z,3.90
2019-02-07T19:27:34.538Z,4.00
2019-02-07T19:30:01.615Z,3.90
2019-02-07T19:32:28.376Z,3.90
2019-02-07T19:34:55.357Z,4.00
2019-02-07T19:37:22.209Z,3.90
2019-02-07T19:39:49.051Z,3.90
2019-02-07T19:42:16.043Z,3.90
2019-02-07T19:44:43.030Z,3.90
2019-02-07T19:47:10.003Z,3.90
2019-02-07T19:49:36.733Z,3.90
2019-02-07T19:52:08.278Z,3.90
2019-02-07T19:54:33.210Z,3.90
2019-02-07T19:57:00.223Z,3.90
2019-02-07T19:59:27.225Z,3.90
2019-02-07T20:01:54.155Z,3.90
2019-02-07T20:04:21.035Z,3.90
2019-02-07T20:06:48.124Z,3.80
2019-02-07T20:09:16.633Z,3.90
2019-02-07T20:11:43.956Z,3.80
2019-02-07T20:14:11.104Z,3.90
2019-02-07T20:16:38.011Z,3.80
2019-02-07T20:19:05.127Z,3.80
2019-02-07T20:21:35.003Z,3.70
2019-02-07T20:24:01.897Z,3.60
2019-02-07T20:26:28.757Z,3.70
2019-02-07T20:28:55.727Z,3.60
2019-02-07T20:31:22.601Z,3.50
2019-02-07T20:33:49.502Z,3.40
2019-02-07T20:36:16.482Z,3.30
2019-02-07T20:38:43.334Z,3.40
2019-02-07T20:41:10.299Z,3.30
2019-02-07T20:43:37.159Z,4.80
2019-02-07T20:46:04.189Z,3.20
2019-02-07T20:48:30.979Z,3.20
2019-02-07T20:50:58.507Z,3.10
2019-02-07T20:53:27.162Z,3.20
2019-02-07T20:55:54.253Z,3.20
2019-02-07T20:58:21.538Z,3.10
2019-02-07T21:00:50.079Z,3.10
2019-02-07T21:03:20.125Z,3.00
2019-02-07T21:05:47.807Z,3.10
2019-02-07T21:08:14.736Z,3.10
2019-02-07T21:10:49.072Z,3.10
2019-02-07T21:13:16.123Z,3.10
2019-02-07T21:15:43.011Z,3.10
2019-02-07T21:18:09.895Z,3.10
2019-02-07T21:20:36.934Z,3.10
2019-02-07T21:23:04.283Z,3.10
2019-02-07T21:25:36.935Z,3.20
2019-02-07T21:28:04.887Z,3.10
2019-02-07T21:30:32.079Z,3.10
2019-02-07T21:32:59.054Z,3.10
2019-02-07T21:35:26.602Z,3.10
2019-02-07T21:37:53.343Z,3.10
2019-02-07T21:40:22.375Z,3.10
2019-02-07T21:42:49.291Z,3.10
2019-02-07T21:45:17.115Z,3.00
2019-02-07T21:47:44.997Z,3.10
2019-02-07T21:50:15.563Z,3.00
2019-02-07T21:52:45.399Z,3.00
2019-02-07T21:55:14.191Z,3.00
2019-02-07T21:57:41.171Z,3.00
2019-02-07T22:00:25.894Z,3.00
2019-02-07T22:02:53.981Z,3.10
2019-02-07T22:05:20.865Z,3.20
2019-02-07T22:07:47.888Z,3.20
2019-02-07T22:10:15.043Z,3.20
2019-02-07T22:12:42.262Z,3.30
2019-02-07T22:15:12.267Z,3.30
2019-02-07T22:17:39.243Z,3.30
2019-02-07T22:20:10.563Z,3.30
2019-02-07T22:22:37.560Z,3.30
2019-02-07T22:25:05.201Z,3.20
2019-02-07T22:27:32.107Z,3.20
2019-02-07T22:29:59.011Z,3.20
2019-02-07T22:32:25.767Z,3.10
2019-02-07T22:34:52.767Z,3.10
2019-02-07T22:37:20.407Z,3.10
2019-02-07T22:39:47.423Z,3.10
2019-02-07T22:42:14.179Z,3.10
2019-02-07T22:44:41.133Z,3.10
2019-02-07T22:47:07.879Z,3.10
2019-02-07T22:49:34.642Z,3.10
2019-02-07T22:52:01.504Z,3.10
2019-02-07T22:54:28.243Z,3.10
2019-02-07T22:56:55.423Z,3.10
2019-02-07T22:59:22.246Z,3.10
2019-02-07T23:01:52.734Z,3.10
2019-02-07T23:04:21.093Z,3.20
2019-02-07T23:06:48.036Z,3.20
2019-02-07T23:09:17.447Z,3.10
2019-02-07T23:11:44.386Z,3.10
2019-02-07T23:14:11.728Z,3.10
2019-02-07T23:16:38.575Z,3.10
2019-02-07T23:19:06.083Z,3.00
2019-02-07T23:21:33.038Z,3.00
2019-02-07T23:23:59.999Z,3.00
2019-02-07T23:26:27.067Z,3.00
2019-02-07T23:28:53.891Z,2.90
2019-02-07T23:31:21.151Z,2.90
2019-02-07T23:33:48.255Z,2.90
2019-02-07T23:36:15.638Z,2.90
2019-02-07T23:38:42.515Z,2.90
2019-02-07T23:41:09.624Z,3.00
2019-02-07T23:43:45.725Z,3.00
2019-02-07T23:46:11.256Z,3.10
2019-02-07T23:48:45.942Z,3.20
2019-02-07T23:51:12.784Z,3.20
2019-02-07T23:53:39.809Z,3.20
2019-02-07T23:56:07.288Z,3.30
2019-02-07T23:58:34.267Z,3.30
